Time;durP1;ratioP1;P1;durP2;ratioP2;P2;SDS_P1;SDS_P2;PMS_P1;PMS_P2;Temp;Humidity;BMP_temperature;BMP_pressure;BME280_temperature;BME280_humidity;BME280_pressure;Samples;Min_cycle;Max_cycle;Signal;HPM_P1;HPM_P2
2023/07/17 00:00:55;;;;;;;4.57;3.33;;;;;;;;;;5071887;28;20169;-59
2023/07/17 00:03:21;;;;;;;4.13;3.73;;;;;;;;;;5070930;28;20575;-59
2023/07/17 00:05:47;;;;;;;4.00;3.60;;;;;;;;;;5056170;28;20212;-60
2023/07/17 00:08:13;;;;;;;4.33;3.93;;;;;;;;;;5051756;28;20165;-60
2023/07/17 00:10:40;;;;;;;3.80;3.50;;;;;;;;;;5051770;28;20656;-59
2023/07/17 00:13:07;;;;;;;4.90;4.07;;;;;;;;;;5051290;28;20170;-58
2023/07/17 00:15:33;;;;;;;4.10;3.50;;;;;;;;;;5051820;28;20215;-57
2023/07/17 00:17:59;;;;;;;4.13;3.70;;;;;;;;;;5049883;28;20181;-58
2023/07/17 00:20:25;;;;;;;4.03;3.73;;;;;;;;;;5051242;28;20253;-58
2023/07/17 00:22:51;;;;;;;4.77;3.67;;;;;;;;;;5051536;28;20775;-59
2023/07/17 00:25:17;;;;;;;4.20;3.80;;;;;;;;;;5051247;28;20170;-58
2023/07/17 00:27:43;;;;;;;4.87;3.87;;;;;;;;;;5051583;28;20192;-58
2023/07/17 00:30:09;;;;;;;4.30;3.90;;;;;;;;;;5050800;28;20249;-58
2023/07/17 00:32:35;;;;;;;3.83;3.53;;;;;;;;;;5051297;28;20525;-58
2023/07/17 00:35:02;;;;;;;3.70;3.40;;;;;;;;;;5050348;28;20173;-58
2023/07/17 00:37:28;;;;;;;3.90;3.43;;;;;;;;;;5051536;28;20637;-58
2023/07/17 00:39:54;;;;;;;4.37;3.90;;;;;;;;;;5051044;28;20634;-58
2023/07/17 00:42:20;;;;;;;4.70;4.23;;;;;;;;;;5050338;28;20193;-56
2023/07/17 00:44:46;;;;;;;4.30;3.67;;;;;;;;;;5050923;28;20619;-58
2023/07/17 00:47:13;;;;;;;3.70;3.23;;;;;;;;;;5050921;28;20182;-59
2023/07/17 00:49:40;;;;;;;4.47;3.47;;;;;;;;;;5050440;28;20666;-58
2023/07/17 00:52:10;;;;;;;4.00;3.60;;;;;;;;;;5050629;28;20169;-57
2023/07/17 00:54:37;;;;;;;4.67;3.70;;;;;;;;;;5050526;28;20173;-58
2023/07/17 00:57:04;;;;;;;3.83;3.33;;;;;;;;;;5050514;28;20217;-59
2023/07/17 00:59:31;;;;;;;4.10;3.67;;;;;;;;;;5050510;28;20175;-59
2023/07/17 01:01:57;;;;;;;6.60;3.63;;;;;;;;;;5050291;28;20582;-57
2023/07/17 01:04:23;;;;;;;5.37;3.70;;;;;;;;;;5053002;28;20636;-57
2023/07/17 01:06:49;;;;;;;3.73;3.43;;;;;;;;;;5070261;28;20556;-58
2023/07/17 01:09:16;;;;;;;4.70;4.20;;;;;;;;;;5069927;28;20201;-56
2023/07/17 01:11:42;;;;;;;3.70;3.40;;;;;;;;;;5052305;28;20185;-58
2023/07/17 01:14:18;;;;;;;4.03;3.63;;;;;;;;;;5070356;28;20555;-58
2023/07/17 01:16:47;;;;;;;4.17;2.87;;;;;;;;;;5069995;28;20480;-57
2023/07/17 01:19:13;;;;;;;3.40;3.10;;;;;;;;;;5069734;28;20256;-57
2023/07/17 01:21:43;;;;;;;3.67;3.37;;;;;;;;;;5069908;28;20715;-57
2023/07/17 01:24:09;;;;;;;4.10;3.70;;;;;;;;;;5070178;28;20171;-58
2023/07/17 01:26:36;;;;;;;4.17;3.37;;;;;;;;;;5070408;28;20156;-57
2023/07/17 01:29:02;;;;;;;3.60;3.30;;;;;;;;;;5069712;28;20167;-57
2023/07/17 01:31:28;;;;;;;3.60;3.30;;;;;;;;;;5069806;28;20177;-57
2023/07/17 01:33:54;;;;;;;3.67;3.23;;;;;;;;;;5069335;28;20570;-57
2023/07/17 01:36:20;;;;;;;3.73;3.43;;;;;;;;;;5069408;28;20169;-58
2023/07/17 01:38:46;;;;;;;3.13;2.80;;;;;;;;;;5069613;28;20168;-57
2023/07/17 01:41:12;;;;;;;3.40;3.10;;;;;;;;;;5069439;28;20169;-56
2023/07/17 01:43:38;;;;;;;3.27;2.97;;;;;;;;;;5069632;28;20176;-57
2023/07/17 01:46:04;;;;;;;3.47;3.10;;;;;;;;;;5069736;28;20522;-57
2023/07/17 01:48:31;;;;;;;3.87;3.43;;;;;;;;;;5069123;28;20183;-58
2023/07/17 01:50:57;;;;;;;3.90;2.97;;;;;;;;;;5069410;28;20204;-57
2023/07/17 01:53:24;;;;;;;6.67;3.40;;;;;;;;;;5068589;28;20184;-57
2023/07/17 01:55:50;;;;;;;3.27;2.97;;;;;;;;;;5070109;28;20665;-58
2023/07/17 01:58:16;;;;;;;4.07;3.67;;;;;;;;;;5069038;28;20232;-57
2023/07/17 02:00:42;;;;;;;3.60;3.30;;;;;;;;;;5069683;28;20581;-56
2023/07/17 02:03:08;;;;;;;4.87;3.37;;;;;;;;;;5068743;28;20204;-57
2023/07/17 02:05:34;;;;;;;4.10;3.10;;;;;;;;;;5068725;28;20208;-57
2023/07/17 02:08:00;;;;;;;4.03;2.90;;;;;;;;;;5069589;28;20646;-59
2023/07/17 02:10:26;;;;;;;3.20;2.90;;;;;;;;;;5069296;28;20196;-58
2023/07/17 02:12:52;;;;;;;3.70;3.27;;;;;;;;;;5069517;28;20182;-57
2023/07/17 02:15:18;;;;;;;3.63;3.33;;;;;;;;;;5069179;28;20171;-58
2023/07/17 02:17:44;;;;;;;2.90;2.70;;;;;;;;;;5069568;28;20736;-57
2023/07/17 02:20:13;;;;;;;4.13;2.87;;;;;;;;;;5068429;28;20575;-58
2023/07/17 02:22:39;;;;;;;3.30;3.00;;;;;;;;;;5069597;28;20202;-57
2023/07/17 02:25:05;;;;;;;3.77;3.37;;;;;;;;;;5069323;28;20505;-57
2023/07/17 02:27:32;;;;;;;3.80;3.40;;;;;;;;;;5069274;28;20175;-58
2023/07/17 02:29:59;;;;;;;4.97;2.93;;;;;;;;;;5068927;28;20202;-57
2023/07/17 02:32:26;;;;;;;5.00;3.40;;;;;;;;;;5069571;28;20163;-56
2023/07/17 02:34:52;;;;;;;3.17;2.93;;;;;;;;;;5068416;28;20217;-56
2023/07/17 02:37:19;;;;;;;3.00;2.70;;;;;;;;;;5069485;28;20178;-56
2023/07/17 02:39:45;;;;;;;3.17;2.60;;;;;;;;;;5068978;28;20541;-57
2023/07/17 02:42:11;;;;;;;3.30;3.00;;;;;;;;;;5069142;28;20547;-57
2023/07/17 02:44:37;;;;;;;4.03;2.97;;;;;;;;;;5051037;28;20170;-58
2023/07/17 02:47:03;;;;;;;2.80;2.53;;;;;;;;;;5069629;28;20267;-56
2023/07/17 02:49:30;;;;;;;4.17;3.47;;;;;;;;;;5068852;28;20250;-57
2023/07/17 02:51:56;;;;;;;3.13;2.60;;;;;;;;;;5068597;28;20178;-56
2023/07/17 02:54:22;;;;;;;3.50;2.70;;;;;;;;;;5068972;28;20262;-56
2023/07/17 02:56:48;;;;;;;3.33;2.60;;;;;;;;;;5068651;28;20165;-55
2023/07/17 02:59:14;;;;;;;3.83;2.80;;;;;;;;;;5068525;28;20183;-57
2023/07/17 03:01:41;;;;;;;2.70;2.50;;;;;;;;;;5069575;28;20646;-56
2023/07/17 03:04:07;;;;;;;3.40;2.80;;;;;;;;;;5067889;28;20253;-57
2023/07/17 03:06:34;;;;;;;2.73;2.50;;;;;;;;;;5052279;28;20193;-57
2023/07/17 03:09:00;;;;;;;2.67;2.47;;;;;;;;;;5052408;28;20166;-56
2023/07/17 03:11:26;;;;;;;3.70;3.40;;;;;;;;;;5052351;28;20201;-56
2023/07/17 03:13:52;;;;;;;2.97;2.70;;;;;;;;;;5052473;28;20248;-57
2023/07/17 03:16:18;;;;;;;2.60;2.40;;;;;;;;;;5052654;28;20166;-56
2023/07/17 03:18:45;;;;;;;2.83;2.63;;;;;;;;;;5051818;28;20227;-56
2023/07/17 03:21:12;;;;;;;2.87;2.60;;;;;;;;;;5050843;28;20267;-57
2023/07/17 03:23:38;;;;;;;2.77;2.57;;;;;;;;;;5052397;28;20181;-56
2023/07/17 03:26:04;;;;;;;2.77;2.57;;;;;;;;;;5052382;28;20165;-58
2023/07/17 03:28:30;;;;;;;3.22;2.92;;;;;;;;;;5051315;28;20404;-55
2023/07/17 03:30:56;;;;;;;5.30;3.40;;;;;;;;;;5052137;28;20205;-56
2023/07/17 03:33:22;;;;;;;3.23;3.03;;;;;;;;;;5051305;28;20337;-56
2023/07/17 03:35:48;;;;;;;3.93;2.67;;;;;;;;;;5051286;28;20161;-56
2023/07/17 03:38:15;;;;;;;3.17;2.87;;;;;;;;;;5050802;28;20180;-55
2023/07/17 03:40:41;;;;;;;3.23;2.60;;;;;;;;;;5049864;28;20234;-56
2023/07/17 03:43:07;;;;;;;4.33;2.80;;;;;;;;;;5051873;28;20185;-56
2023/07/17 03:45:34;;;;;;;3.13;2.77;;;;;;;;;;5052218;28;20507;-56
2023/07/17 03:48:01;;;;;;;3.23;2.17;;;;;;;;;;5052280;28;20170;-57
2023/07/17 03:50:27;;;;;;;2.70;2.20;;;;;;;;;;5051358;28;20614;-55
2023/07/17 03:52:54;;;;;;;3.15;2.50;;;;;;;;;;5051892;28;20766;-55
2023/07/17 03:55:21;;;;;;;3.37;2.40;;;;;;;;;;5051422;28;20175;-55
2023/07/17 03:57:47;;;;;;;3.23;2.60;;;;;;;;;;5051840;28;20232;-56
2023/07/17 04:00:14;;;;;;;2.80;2.60;;;;;;;;;;5051460;28;20172;-55
2023/07/17 04:02:44;;;;;;;2.73;2.53;;;;;;;;;;5051758;28;20323;-55
2023/07/17 04:05:12;;;;;;;3.55;3.25;;;;;;;;;;5050241;28;20638;-57
2023/07/17 04:07:39;;;;;;;3.57;2.73;;;;;;;;;;5050177;28;20275;-55
2023/07/17 04:10:05;;;;;;;3.70;2.70;;;;;;;;;;5051267;28;20642;-57
2023/07/17 04:12:32;;;;;;;2.60;2.13;;;;;;;;;;5051478;28;20589;-56
2023/07/17 04:14:59;;;;;;;2.40;2.20;;;;;;;;;;5050976;28;20185;-54
2023/07/17 04:17:26;;;;;;;2.70;2.50;;;;;;;;;;5050600;28;20213;-57
2023/07/17 04:19:52;;;;;;;2.47;2.27;;;;;;;;;;5050341;28;20209;-56
2023/07/17 04:22:18;;;;;;;4.10;2.80;;;;;;;;;;5051231;28;20175;-56
2023/07/17 04:24:45;;;;;;;2.50;2.30;;;;;;;;;;5051431;28;20181;-56
2023/07/17 04:27:12;;;;;;;3.77;3.47;;;;;;;;;;5051337;28;20180;-56
2023/07/17 04:29:39;;;;;;;2.73;2.53;;;;;;;;;;5049844;28;20210;-58
2023/07/17 04:32:05;;;;;;;2.20;2.10;;;;;;;;;;5051022;28;20190;-56
2023/07/17 04:34:31;;;;;;;4.20;2.40;;;;;;;;;;5050585;28;20682;-56
2023/07/17 04:36:58;;;;;;;2.50;2.30;;;;;;;;;;5050913;28;20170;-56
2023/07/17 04:39:27;;;;;;;3.90;2.40;;;;;;;;;;5050867;28;20300;-56
2023/07/17 04:41:53;;;;;;;2.90;2.30;;;;;;;;;;5051136;28;20182;-56
2023/07/17 04:44:19;;;;;;;2.60;2.37;;;;;;;;;;5050862;28;20158;-56
2023/07/17 04:46:45;;;;;;;4.03;2.57;;;;;;;;;;5051219;28;20655;-56
2023/07/17 04:49:12;;;;;;;2.60;2.40;;;;;;;;;;5050054;28;20581;-56
2023/07/17 04:51:38;;;;;;;3.07;2.30;;;;;;;;;;5050580;28;20163;-57
2023/07/17 04:54:04;;;;;;;4.27;2.80;;;;;;;;;;5050730;28;20161;-56
2023/07/17 04:56:30;;;;;;;2.80;2.60;;;;;;;;;;5050897;28;20625;-57
2023/07/17 04:58:59;;;;;;;3.50;2.60;;;;;;;;;;5050138;28;20221;-56
2023/07/17 05:01:25;;;;;;;3.10;2.73;;;;;;;;;;5050527;28;20898;-56
2023/07/17 05:03:54;;;;;;;2.93;2.67;;;;;;;;;;5048396;28;20216;-56
2023/07/17 05:06:20;;;;;;;2.33;2.07;;;;;;;;;;5069934;28;20599;-55
2023/07/17 05:08:46;;;;;;;2.97;2.67;;;;;;;;;;5070375;28;20154;-57
2023/07/17 05:11:12;;;;;;;4.77;2.80;;;;;;;;;;5070658;28;20265;-57
2023/07/17 05:13:39;;;;;;;4.13;2.20;;;;;;;;;;5070239;28;20168;-57
2023/07/17 05:16:05;;;;;;;4.40;3.30;;;;;;;;;;5070051;28;20238;-56
2023/07/17 05:18:31;;;;;;;3.40;2.93;;;;;;;;;;5053368;28;20207;-56
2023/07/17 05:20:57;;;;;;;3.00;2.67;;;;;;;;;;5031967;28;20252;-56
2023/07/17 05:23:24;;;;;;;4.23;3.03;;;;;;;;;;5050184;28;20173;-56
2023/07/17 05:25:55;;;;;;;4.70;2.73;;;;;;;;;;5050019;28;20185;-57
2023/07/17 05:28:21;;;;;;;2.97;2.57;;;;;;;;;;5050185;28;20598;-57
2023/07/17 05:30:51;;;;;;;3.57;2.73;;;;;;;;;;5050092;28;20201;-56
2023/07/17 05:33:17;;;;;;;3.73;2.90;;;;;;;;;;5049516;28;20169;-56
2023/07/17 05:35:43;;;;;;;3.87;2.90;;;;;;;;;;5049568;28;20219;-56
2023/07/17 05:38:10;;;;;;;3.33;3.03;;;;;;;;;;5050020;28;20173;-56
2023/07/17 05:40:39;;;;;;;3.33;2.90;;;;;;;;;;5049846;28;20239;-56
2023/07/17 05:43:05;;;;;;;3.70;3.40;;;;;;;;;;5049411;28;20213;-56
2023/07/17 05:45:32;;;;;;;3.77;3.37;;;;;;;;;;5049729;28;20591;-56
2023/07/17 05:47:58;;;;;;;5.17;3.13;;;;;;;;;;5049746;28;20172;-56
2023/07/17 05:50:24;;;;;;;5.23;3.20;;;;;;;;;;5048645;28;20663;-56
2023/07/17 05:52:50;;;;;;;3.57;3.27;;;;;;;;;;5049585;28;20225;-56
2023/07/17 05:55:17;;;;;;;3.80;3.50;;;;;;;;;;5049419;28;20671;-56
2023/07/17 05:57:43;;;;;;;6.30;4.10;;;;;;;;;;5049710;28;20241;-56
2023/07/17 06:00:14;;;;;;;3.67;3.37;;;;;;;;;;5049328;28;20183;-56
2023/07/17 06:02:44;;;;;;;6.23;4.20;;;;;;;;;;5049710;28;20526;-56
2023/07/17 06:05:11;;;;;;;4.43;4.00;;;;;;;;;;5058278;28;20209;-56
2023/07/17 06:07:38;;;;;;;7.60;4.67;;;;;;;;;;5069580;28;20153;-55
2023/07/17 06:10:05;;;;;;;4.03;3.63;;;;;;;;;;5069690;28;20215;-57
2023/07/17 06:12:31;;;;;;;7.47;4.15;;;;;;;;;;5068878;28;20919;-55
2023/07/17 06:14:57;;;;;;;8.37;4.23;;;;;;;;;;5069543;28;20231;-56
2023/07/17 06:17:24;;;;;;;4.97;3.80;;;;;;;;;;5051294;28;20210;-56
2023/07/17 06:19:50;;;;;;;4.87;4.03;;;;;;;;;;5050167;28;20263;-56
2023/07/17 06:22:16;;;;;;;5.30;4.40;;;;;;;;;;5069757;28;20242;-56
2023/07/17 06:24:43;;;;;;;4.83;4.27;;;;;;;;;;5069519;28;20799;-56
2023/07/17 06:27:09;;;;;;;5.23;4.73;;;;;;;;;;5069159;28;20537;-56
2023/07/17 06:29:36;;;;;;;5.00;4.27;;;;;;;;;;5069472;28;20742;-57
2023/07/17 06:32:02;;;;;;;7.40;4.80;;;;;;;;;;5069084;28;20188;-57
2023/07/17 06:34:28;;;;;;;9.10;5.40;;;;;;;;;;5068441;28;20262;-56
2023/07/17 06:36:56;;;;;;;6.43;5.53;;;;;;;;;;5050792;28;20614;-57
2023/07/17 06:39:22;;;;;;;7.23;4.83;;;;;;;;;;5070467;28;20184;-56
2023/07/17 06:41:49;;;;;;;5.87;4.87;;;;;;;;;;5072805;28;20169;-56
2023/07/17 06:44:15;;;;;;;6.00;4.33;;;;;;;;;;5073151;28;20170;-56
2023/07/17 06:46:42;;;;;;;8.73;6.63;;;;;;;;;;5072968;28;20316;-57
2023/07/17 06:49:08;;;;;;;8.43;4.93;;;;;;;;;;5054138;28;20174;-56
2023/07/17 06:51:34;;;;;;;6.20;4.93;;;;;;;;;;5072826;28;20300;-56
2023/07/17 06:54:01;;;;;;;7.00;5.07;;;;;;;;;;5073333;28;20175;-57
2023/07/17 06:56:27;;;;;;;6.33;4.73;;;;;;;;;;5072787;28;20180;-56
2023/07/17 06:58:53;;;;;;;8.03;5.17;;;;;;;;;;5072401;28;20221;-56
2023/07/17 07:01:20;;;;;;;6.47;4.37;;;;;;;;;;5072838;28;20181;-56
2023/07/17 07:03:46;;;;;;;5.53;4.33;;;;;;;;;;5071749;28;20254;-58
2023/07/17 07:06:13;;;;;;;6.07;4.77;;;;;;;;;;5053615;28;20209;-57
2023/07/17 07:08:41;;;;;;;6.53;4.67;;;;;;;;;;5052725;28;20628;-56
2023/07/17 07:11:08;;;;;;;4.63;4.13;;;;;;;;;;5053008;28;20194;-58
2023/07/17 07:13:35;;;;;;;6.43;4.87;;;;;;;;;;5052737;28;20174;-58
2023/07/17 07:16:01;;;;;;;8.97;4.17;;;;;;;;;;5052578;28;20231;-58
2023/07/17 07:18:27;;;;;;;6.43;4.47;;;;;;;;;;5051325;28;20718;-56
2023/07/17 07:20:54;;;;;;;7.60;5.07;;;;;;;;;;5052054;28;20561;-58
2023/07/17 07:23:21;;;;;;;6.70;4.77;;;;;;;;;;5052393;28;20712;-56
2023/07/17 07:25:47;;;;;;;7.00;4.70;;;;;;;;;;5052842;28;20642;-56
2023/07/17 07:28:14;;;;;;;6.60;4.70;;;;;;;;;;5052273;28;20173;-57
2023/07/17 07:30:40;;;;;;;7.00;4.37;;;;;;;;;;5052665;28;20210;-57
2023/07/17 07:33:06;;;;;;;4.90;4.40;;;;;;;;;;5051252;28;20222;-57
2023/07/17 07:35:33;;;;;;;4.93;3.93;;;;;;;;;;5051798;28;20173;-56
2023/07/17 07:37:59;;;;;;;6.93;5.13;;;;;;;;;;5052288;28;20162;-56
2023/07/17 07:40:27;;;;;;;6.73;4.83;;;;;;;;;;5052024;28;20230;-57
2023/07/17 07:42:53;;;;;;;5.50;4.37;;;;;;;;;;5052218;28;20169;-56
2023/07/17 07:45:21;;;;;;;6.50;4.37;;;;;;;;;;5051926;28;20612;-56
2023/07/17 07:47:47;;;;;;;4.57;4.00;;;;;;;;;;5051972;28;20226;-57
2023/07/17 07:50:13;;;;;;;7.73;4.27;;;;;;;;;;5049764;28;20190;-57
2023/07/17 07:52:39;;;;;;;4.80;4.40;;;;;;;;;;5051756;28;20260;-57
2023/07/17 07:55:06;;;;;;;5.07;4.57;;;;;;;;;;5051915;28;20182;-58
2023/07/17 07:57:32;;;;;;;7.70;4.83;;;;;;;;;;5051854;28;20226;-57
2023/07/17 07:59:58;;;;;;;6.40;4.37;;;;;;;;;;5051938;28;20595;-57
2023/07/17 08:02:24;;;;;;;5.13;4.30;;;;;;;;;;5051826;28;20251;-57
2023/07/17 08:04:51;;;;;;;6.07;3.97;;;;;;;;;;5057879;28;20214;-57
2023/07/17 08:07:17;;;;;;;7.20;4.53;;;;;;;;;;5071481;28;20176;-57
2023/07/17 08:09:44;;;;;;;6.23;4.40;;;;;;;;;;5071316;28;20212;-57
2023/07/17 08:12:10;;;;;;;6.27;4.37;;;;;;;;;;5071860;28;20161;-58
2023/07/17 08:14:36;;;;;;;6.53;4.17;;;;;;;;;;5071623;28;20161;-58
2023/07/17 08:17:02;;;;;;;5.13;4.17;;;;;;;;;;5071706;28;20640;-58
2023/07/17 08:19:28;;;;;;;8.13;4.70;;;;;;;;;;5071043;28;20663;-57
2023/07/17 08:21:54;;;;;;;8.47;5.27;;;;;;;;;;5071163;28;20167;-57
2023/07/17 08:24:21;;;;;;;6.10;4.33;;;;;;;;;;5071249;28;20188;-57
2023/07/17 08:26:47;;;;;;;6.97;3.70;;;;;;;;;;5071502;28;20246;-56
2023/07/17 08:29:13;;;;;;;6.83;4.27;;;;;;;;;;5070758;28;20223;-57
2023/07/17 08:31:40;;;;;;;5.50;4.00;;;;;;;;;;5071263;28;20213;-58
2023/07/17 08:34:06;;;;;;;5.90;3.63;;;;;;;;;;5070696;28;20168;-58
2023/07/17 08:36:33;;;;;;;7.57;4.13;;;;;;;;;;5070954;28;20664;-59
2023/07/17 08:38:59;;;;;;;4.60;4.03;;;;;;;;;;5070950;28;20180;-58
2023/07/17 08:41:27;;;;;;;5.20;3.63;;;;;;;;;;5053142;28;20530;-58
2023/07/17 08:43:53;;;;;;;5.77;4.17;;;;;;;;;;5070537;28;20179;-59
2023/07/17 08:46:20;;;;;;;5.43;4.07;;;;;;;;;;5071233;28;20673;-58
2023/07/17 08:48:47;;;;;;;7.57;4.73;;;;;;;;;;5070091;28;20168;-57
2023/07/17 08:51:14;;;;;;;4.50;3.83;;;;;;;;;;5052375;28;20686;-57
2023/07/17 08:53:47;;;;;;;5.33;4.20;;;;;;;;;;5070861;28;20157;-57
2023/07/17 08:56:13;;;;;;;4.73;4.00;;;;;;;;;;5071007;28;20271;-57
2023/07/17 08:58:40;;;;;;;4.27;3.77;;;;;;;;;;5069610;28;20921;-60
2023/07/17 09:01:07;;;;;;;6.57;4.20;;;;;;;;;;5070776;28;20172;-59
2023/07/17 09:03:34;;;;;;;5.60;4.13;;;;;;;;;;5069877;28;20569;-58
2023/07/17 09:06:02;;;;;;;4.67;4.20;;;;;;;;;;5070114;28;20197;-58
2023/07/17 09:08:29;;;;;;;4.10;3.70;;;;;;;;;;5070503;28;20222;-58
2023/07/17 09:11:05;;;;;;;4.67;3.73;;;;;;;;;;5070526;28;20536;-58
2023/07/17 09:13:42;;;;;;;4.03;3.33;;;;;;;;;;5070088;28;20646;-58
2023/07/17 09:16:26;;;;;;;5.97;3.70;;;;;;;;;;5070366;28;20173;-58
2023/07/17 09:18:54;;;;;;;6.13;3.73;;;;;;;;;;5070002;28;20180;-58
2023/07/17 09:21:21;;;;;;;5.00;3.40;;;;;;;;;;5069821;28;20184;-57
2023/07/17 09:23:49;;;;;;;4.73;3.57;;;;;;;;;;5070459;28;20184;-57
2023/07/17 09:26:16;;;;;;;4.80;3.57;;;;;;;;;;5070248;28;20157;-58
2023/07/17 09:28:53;;;;;;;3.40;3.10;;;;;;;;;;5051870;28;20182;-58
2023/07/17 09:31:37;;;;;;;3.93;3.33;;;;;;;;;;5070248;28;20293;-58
2023/07/17 09:34:12;;;;;;;5.23;3.40;;;;;;;;;;5069503;28;20176;-58
2023/07/17 09:36:38;;;;;;;6.80;3.50;;;;;;;;;;5069613;28;20159;-58
2023/07/17 09:39:05;;;;;;;4.10;3.50;;;;;;;;;;5070091;28;20218;-58
2023/07/17 09:41:32;;;;;;;3.63;3.33;;;;;;;;;;5069951;28;20671;-58
2023/07/17 09:44:05;;;;;;;4.40;3.60;;;;;;;;;;5070634;28;20167;-58
2023/07/17 09:46:43;;;;;;;5.13;3.27;;;;;;;;;;5070234;28;20173;-59
2023/07/17 09:49:09;;;;;;;3.80;3.40;;;;;;;;;;5069319;28;20156;-59
2023/07/17 09:51:36;;;;;;;5.17;3.47;;;;;;;;;;5070386;28;20674;-58
2023/07/17 09:54:03;;;;;;;3.80;3.40;;;;;;;;;;5069941;28;20187;-58
2023/07/17 09:56:31;;;;;;;5.20;3.43;;;;;;;;;;5070055;28;20737;-59
2023/07/17 09:59:04;;;;;;;6.90;3.60;;;;;;;;;;5051653;28;20587;-58
2023/07/17 10:01:30;;;;;;;5.47;3.57;;;;;;;;;;5070232;28;20196;-58
2023/07/17 10:03:58;;;;;;;4.17;3.33;;;;;;;;;;5062352;28;20203;-58
2023/07/17 10:06:25;;;;;;;5.50;3.10;;;;;;;;;;5056893;28;20184;-58
2023/07/17 10:08:51;;;;;;;5.53;2.87;;;;;;;;;;5057641;28;20181;-59
2023/07/17 10:11:18;;;;;;;6.70;3.33;;;;;;;;;;5060097;28;20211;-59
2023/07/17 10:13:46;;;;;;;4.03;3.17;;;;;;;;;;5058998;28;20272;-59
2023/07/17 10:16:14;;;;;;;5.10;3.63;;;;;;;;;;5058269;28;20184;-59
2023/07/17 10:18:48;;;;;;;8.00;3.47;;;;;;;;;;5057217;28;20183;-59
2023/07/17 10:21:15;;;;;;;5.53;3.67;;;;;;;;;;5061023;28;20579;-60
2023/07/17 10:23:42;;;;;;;7.60;3.90;;;;;;;;;;5052408;28;20189;-60
2023/07/17 10:26:10;;;;;;;5.70;4.40;;;;;;;;;;5056066;28;20176;-60
2023/07/17 10:28:37;;;;;;;6.70;4.83;;;;;;;;;;5049230;28;20185;-63
2023/07/17 10:31:20;;;;;;;7.50;4.40;;;;;;;;;;5057063;28;20196;-60
2023/07/17 10:34:05;;;;;;;5.73;3.97;;;;;;;;;;5061495;28;20176;-60
2023/07/17 10:36:41;;;;;;;6.77;4.63;;;;;;;;;;5064371;28;20618;-61
2023/07/17 10:39:08;;;;;;;6.83;4.17;;;;;;;;;;5064834;28;20650;-63
2023/07/17 10:41:37;;;;;;;5.40;4.13;;;;;;;;;;5059267;28;20212;-63
2023/07/17 10:44:06;;;;;;;6.50;3.53;;;;;;;;;;5059226;28;20641;-59
2023/07/17 10:46:34;;;;;;;4.93;3.57;;;;;;;;;;5058380;28;20508;-57
2023/07/17 10:49:07;;;;;;;5.00;3.90;;;;;;;;;;5060337;28;20196;-58
2023/07/17 10:51:34;;;;;;;7.00;4.40;;;;;;;;;;5057180;28;20216;-58
2023/07/17 10:54:00;;;;;;;5.17;3.70;;;;;;;;;;5061350;28;20196;-55
2023/07/17 10:56:26;;;;;;;7.80;4.57;;;;;;;;;;5066004;28;20271;-55
2023/07/17 10:58:52;;;;;;;4.63;3.73;;;;;;;;;;5056385;28;20213;-56
2023/07/17 11:01:22;;;;;;;5.43;3.93;;;;;;;;;;5061068;28;20282;-55
2023/07/17 11:04:10;;;;;;;7.00;4.80;;;;;;;;;;5055532;28;20383;-55
2023/07/17 11:06:36;;;;;;;4.97;4.30;;;;;;;;;;5056051;28;20189;-55
2023/07/17 11:09:03;;;;;;;5.50;4.00;;;;;;;;;;5050575;28;20661;-57
2023/07/17 11:11:29;;;;;;;5.87;4.00;;;;;;;;;;5053812;28;20264;-56
2023/07/17 11:13:55;;;;;;;6.60;4.27;;;;;;;;;;5058997;28;20190;-56
2023/07/17 11:16:23;;;;;;;6.23;4.20;;;;;;;;;;5055649;28;20194;-57
2023/07/17 11:18:50;;;;;;;8.97;4.20;;;;;;;;;;5057101;28;20183;-57
2023/07/17 11:21:18;;;;;;;10.17;4.73;;;;;;;;;;5057288;28;20189;-56
2023/07/17 11:23:49;;;;;;;4.03;3.60;;;;;;;;;;5061799;28;20236;-55
2023/07/17 11:26:25;;;;;;;6.10;4.57;;;;;;;;;;5060803;28;20184;-55
2023/07/17 11:28:52;;;;;;;10.60;4.53;;;;;;;;;;5037221;28;20185;-56
2023/07/17 11:31:20;;;;;;;6.33;5.10;;;;;;;;;;5058661;28;21055;-55
2023/07/17 11:33:59;;;;;;;7.47;5.17;;;;;;;;;;5063989;28;20169;-56
2023/07/17 11:36:27;;;;;;;8.30;4.60;;;;;;;;;;5059894;28;20244;-55
2023/07/17 11:38:57;;;;;;;5.05;4.50;;;;;;;;;;5040696;28;20462;-55
2023/07/17 11:41:25;;;;;;;6.67;4.60;;;;;;;;;;5066325;28;20722;-55
2023/07/17 11:43:58;;;;;;;6.33;4.73;;;;;;;;;;5071098;28;20170;-55
2023/07/17 11:46:24;;;;;;;7.03;4.53;;;;;;;;;;5069574;28;20190;-55
2023/07/17 11:48:53;;;;;;;5.90;4.93;;;;;;;;;;5070441;28;20206;-56
2023/07/17 11:51:24;;;;;;;8.60;4.80;;;;;;;;;;5070297;28;20210;-55
2023/07/17 11:53:54;;;;;;;8.97;4.90;;;;;;;;;;5054123;28;20178;-55
2023/07/17 11:56:21;;;;;;;7.07;4.60;;;;;;;;;;5066340;28;20178;-55
2023/07/17 11:58:52;;;;;;;8.00;4.50;;;;;;;;;;5068127;28;20223;-55
2023/07/17 12:01:18;;;;;;;7.57;5.10;;;;;;;;;;5066430;28;20186;-56
2023/07/17 12:03:44;;;;;;;4.83;4.33;;;;;;;;;;5065566;28;20791;-55
2023/07/17 12:06:10;;;;;;;4.67;4.00;;;;;;;;;;5066428;28;20182;-55
2023/07/17 12:08:38;;;;;;;4.57;3.60;;;;;;;;;;5070224;28;20537;-55
2023/07/17 12:11:04;;;;;;;4.10;3.70;;;;;;;;;;5070216;28;20197;-57
2023/07/17 12:13:30;;;;;;;6.87;4.23;;;;;;;;;;5059499;28;20804;-56
2023/07/17 12:15:57;;;;;;;5.00;4.03;;;;;;;;;;5063672;28;20185;-55
2023/07/17 12:18:23;;;;;;;5.43;4.33;;;;;;;;;;5070463;28;20642;-55
2023/07/17 12:20:49;;;;;;;6.57;3.97;;;;;;;;;;5059022;28;20217;-56
2023/07/17 12:23:18;;;;;;;5.00;4.60;;;;;;;;;;5063173;28;20183;-56
2023/07/17 12:25:46;;;;;;;5.80;3.87;;;;;;;;;;5063136;28;20174;-56
2023/07/17 12:28:13;;;;;;;5.83;4.60;;;;;;;;;;5053062;28;20513;-56
2023/07/17 12:30:40;;;;;;;5.20;4.20;;;;;;;;;;5060909;28;20225;-55
2023/07/17 12:33:06;;;;;;;5.80;4.43;;;;;;;;;;5058064;28;20658;-56
2023/07/17 12:35:33;;;;;;;5.63;4.47;;;;;;;;;;5069679;28;20571;-55
2023/07/17 12:37:59;;;;;;;4.63;4.07;;;;;;;;;;5060977;28;20175;-55
2023/07/17 12:40:26;;;;;;;8.97;5.10;;;;;;;;;;5062524;28;20211;-56
2023/07/17 12:42:52;;;;;;;7.50;4.30;;;;;;;;;;5063659;28;20200;-55
2023/07/17 12:45:18;;;;;;;6.07;4.20;;;;;;;;;;5070029;28;20185;-55
2023/07/17 12:47:44;;;;;;;9.23;4.47;;;;;;;;;;5067352;28;20644;-56
2023/07/17 12:50:11;;;;;;;4.57;3.67;;;;;;;;;;5062735;28;20209;-56
2023/07/17 12:52:37;;;;;;;9.77;6.00;;;;;;;;;;5059317;28;20297;-56
2023/07/17 12:55:03;;;;;;;5.63;4.47;;;;;;;;;;5059305;28;20189;-55
2023/07/17 12:57:29;;;;;;;5.80;4.17;;;;;;;;;;5063132;28;20654;-56
2023/07/17 12:59:56;;;;;;;5.23;4.27;;;;;;;;;;5067904;28;20565;-55
2023/07/17 13:02:24;;;;;;;5.10;4.60;;;;;;;;;;5057271;28;20646;-55
2023/07/17 13:04:50;;;;;;;5.10;4.40;;;;;;;;;;5063820;28;20254;-55
2023/07/17 13:07:17;;;;;;;4.57;4.17;;;;;;;;;;5060769;28;20513;-55
2023/07/17 13:09:43;;;;;;;6.53;4.40;;;;;;;;;;5047927;28;20566;-55
2023/07/17 13:12:09;;;;;;;6.80;4.47;;;;;;;;;;5061246;28;20170;-55
2023/07/17 13:14:36;;;;;;;5.33;4.80;;;;;;;;;;5054711;28;20212;-54
2023/07/17 13:17:03;;;;;;;5.17;4.17;;;;;;;;;;5061174;28;20557;-56
2023/07/17 13:19:29;;;;;;;4.87;4.23;;;;;;;;;;5061823;28;20182;-55
2023/07/17 13:21:55;;;;;;;7.50;4.53;;;;;;;;;;5058966;28;20186;-55
2023/07/17 13:24:23;;;;;;;5.83;4.47;;;;;;;;;;5062910;28;20547;-56
2023/07/17 13:26:49;;;;;;;7.43;4.67;;;;;;;;;;5063851;28;20182;-56
2023/07/17 13:29:15;;;;;;;6.00;4.73;;;;;;;;;;5061553;28;20544;-56
2023/07/17 13:31:41;;;;;;;4.83;3.97;;;;;;;;;;5063523;28;20257;-56
2023/07/17 13:34:07;;;;;;;4.67;4.23;;;;;;;;;;5038868;28;20176;-56
2023/07/17 13:36:34;;;;;;;5.03;4.53;;;;;;;;;;5061068;28;20221;-55
2023/07/17 13:39:01;;;;;;;6.57;5.27;;;;;;;;;;5061965;28;20210;-55
2023/07/17 13:41:47;;;;;;;7.03;4.50;;;;;;;;;;5058620;28;20295;-56
2023/07/17 13:44:14;;;;;;;5.73;3.90;;;;;;;;;;5060694;28;20215;-56
2023/07/17 13:46:41;;;;;;;5.20;4.10;;;;;;;;;;5054686;28;20188;-56
2023/07/17 13:49:08;;;;;;;5.57;4.30;;;;;;;;;;5058673;28;20191;-57
2023/07/17 13:51:35;;;;;;;5.00;3.97;;;;;;;;;;5058476;28;20273;-57
2023/07/17 13:54:03;;;;;;;5.30;3.92;;;;;;;;;;5049673;28;20207;-57
2023/07/17 13:56:31;;;;;;;5.63;4.13;;;;;;;;;;5056718;28;20188;-57
2023/07/17 13:59:00;;;;;;;4.65;4.25;;;;;;;;;;5054623;28;20556;-57
2023/07/17 14:01:27;;;;;;;5.85;4.20;;;;;;;;;;5062223;28;20307;-57
2023/07/17 14:03:56;;;;;;;5.60;5.03;;;;;;;;;;5060546;28;20172;-57
2023/07/17 14:06:22;;;;;;;4.05;3.55;;;;;;;;;;5055316;28;20188;-56
2023/07/17 14:08:48;;;;;;;5.83;4.27;;;;;;;;;;5062482;28;20222;-57
2023/07/17 14:11:15;;;;;;;4.97;4.47;;;;;;;;;;5051442;28;20442;-57
2023/07/17 14:13:41;;;;;;;10.60;5.17;;;;;;;;;;5057776;28;20208;-57
2023/07/17 14:16:11;;;;;;;6.03;4.17;;;;;;;;;;5041065;28;20575;-57
2023/07/17 14:18:40;;;;;;;6.13;4.03;;;;;;;;;;5060657;28;20216;-57
2023/07/17 14:21:07;;;;;;;5.03;4.37;;;;;;;;;;5045466;28;20241;-57
2023/07/17 14:23:36;;;;;;;4.50;4.03;;;;;;;;;;5060746;28;20645;-57
2023/07/17 14:26:04;;;;;;;7.00;4.33;;;;;;;;;;5059823;28;20207;-57
2023/07/17 14:28:31;;;;;;;4.60;4.07;;;;;;;;;;5060906;28;20191;-57
2023/07/17 14:30:57;;;;;;;8.77;4.87;;;;;;;;;;5064420;28;20203;-57
2023/07/17 14:33:23;;;;;;;4.43;3.77;;;;;;;;;;5062977;28;21394;-57
2023/07/17 14:35:50;;;;;;;4.57;3.70;;;;;;;;;;5039126;28;20972;-57
2023/07/17 14:38:16;;;;;;;5.87;3.80;;;;;;;;;;5061982;28;20230;-57
2023/07/17 14:40:43;;;;;;;4.67;3.23;;;;;;;;;;5061289;28;20193;-57
2023/07/17 14:43:09;;;;;;;4.13;3.70;;;;;;;;;;5057427;28;20278;-56